Orbital elements of FENGYUN 1C DEB
| Launched | 9 May 1999 |
| Flight ended | – |
| Launch site | Taiyuan Space Center, PRC |
| Owner | People's Republic of China |
| NORAD ID | 30280 |
| Date fetched |
Epoch osculation |
Inc. [°] |
Ecc. | RA asc node [hr] |
Arg Peri. [°] |
Mean anom [°] |
Mean motion [rev/day] |
Abs. mag |
| Date fetched |
Epoch osculation |
Inc. [°] |
Ecc. | RA asc node [hr] |
Arg Peri. [°] |
Mean anom [°] |
Mean motion [rev/day] |
Abs. mag |
| 2026 May 06 17:57 | 2026 May 05 11:52:20 | 98.7884 | 0.00787 | 7.5860 | 291.0856 | 231.7034 | 13.98449 | – |
| 2026 May 05 17:57 | 2026 May 05 11:52:20 | 98.7884 | 0.00787 | 7.5860 | 291.0856 | 231.7034 | 13.98449 | – |
| 2026 May 04 17:57 | 2026 Apr 30 11:39:45 | 98.7874 | 0.00790 | 7.2659 | 305.0713 | 231.7034 | 13.98449 | – |
| 2026 May 03 17:57 | 2026 Apr 30 11:39:45 | 98.7874 | 0.00790 | 7.2659 | 305.0713 | 231.7034 | 13.98449 | – |
| 2026 May 02 17:57 | 2026 Apr 30 11:39:45 | 98.7874 | 0.00790 | 7.2659 | 305.0713 | 231.7034 | 13.98449 | – |
| 2026 May 01 17:56 | 2026 Apr 30 11:39:45 | 98.7874 | 0.00790 | 7.2659 | 305.0713 | 231.7034 | 13.98449 | – |
| 2026 Apr 30 17:56 | 2026 Apr 30 11:39:45 | 98.7874 | 0.00790 | 7.2659 | 305.0713 | 231.7034 | 13.98449 | – |
| 2026 Apr 29 17:57 | 2026 Apr 24 11:23:32 | 98.7872 | 0.00794 | 6.8818 | 321.7610 | 231.7034 | 13.98449 | – |
| 2026 Apr 28 17:56 | 2026 Apr 24 11:23:32 | 98.7872 | 0.00794 | 6.8818 | 321.7610 | 231.7034 | 13.98449 | – |
| 2026 Apr 27 17:58 | 2026 Apr 24 11:23:32 | 98.7872 | 0.00794 | 6.8818 | 321.7610 | 231.7034 | 13.98449 | – |
| 2026 Apr 26 17:58 | 2026 Apr 24 11:23:32 | 98.7872 | 0.00794 | 6.8818 | 321.7610 | 231.7034 | 13.98449 | – |
| 2026 Apr 25 17:58 | 2026 Apr 24 11:23:32 | 98.7872 | 0.00794 | 6.8818 | 321.7610 | 231.7034 | 13.98449 | – |
| 2026 Apr 24 17:59 | 2026 Apr 24 11:23:32 | 98.7872 | 0.00794 | 6.8818 | 321.7610 | 231.7034 | 13.98449 | – |
| 2026 Apr 23 17:57 | 2026 Apr 18 22:33:50 | 98.7873 | 0.00799 | 6.5281 | 337.1142 | 231.7034 | 13.98449 | – |
| 2026 Apr 22 17:57 | 2026 Apr 18 22:33:50 | 98.7873 | 0.00799 | 6.5281 | 337.1142 | 231.7034 | 13.98449 | – |
| 2026 Apr 21 17:57 | 2026 Apr 18 22:33:50 | 98.7873 | 0.00799 | 6.5281 | 337.1142 | 231.7034 | 13.98449 | – |
| 2026 Apr 20 17:57 | 2026 Apr 18 22:33:50 | 98.7873 | 0.00799 | 6.5281 | 337.1142 | 231.7034 | 13.98449 | – |
| 2026 Apr 19 17:58 | 2026 Apr 18 22:33:50 | 98.7873 | 0.00799 | 6.5281 | 337.1142 | 231.7034 | 13.98449 | – |
| 2026 Apr 18 17:56 | 2026 Apr 12 17:54:01 | 98.7872 | 0.00804 | 6.1323 | 354.3458 | 231.7034 | 13.98449 | – |
| 2026 Apr 16 17:57 | 2026 Apr 12 17:54:01 | 98.7872 | 0.00804 | 6.1323 | 354.3458 | 231.7034 | 13.98449 | – |
| 2026 Apr 14 17:57 | 2026 Apr 12 17:54:01 | 98.7872 | 0.00804 | 6.1323 | 354.3458 | 231.7034 | 13.98449 | – |
| 2026 Apr 13 17:57 | 2026 Apr 12 17:54:01 | 98.7872 | 0.00804 | 6.1323 | 354.3458 | 231.7034 | 13.98449 | – |
| 2026 Apr 12 17:57 | 2026 Apr 08 10:44:19 | 98.7877 | 0.00808 | 5.8577 | 6.3251 | 231.7034 | 13.98449 | – |
| 2026 Apr 11 17:57 | 2026 Apr 08 10:44:19 | 98.7877 | 0.00808 | 5.8577 | 6.3251 | 231.7034 | 13.98449 | – |
| 2026 Apr 10 17:58 | 2026 Apr 08 10:44:19 | 98.7877 | 0.00808 | 5.8577 | 6.3251 | 231.7034 | 13.98449 | – |
| 2026 Apr 09 18:01 | 2026 Apr 08 10:44:19 | 98.7877 | 0.00808 | 5.8577 | 6.3251 | 231.7034 | 13.98449 | – |